sensor_id;sensor_type;location;lat;lon;timestamp;temperature;humidity
63260;DHT22;49390;51.380;0.098;2022-12-24T00:02:28;9.80;99.90
63260;DHT22;49390;51.380;0.098;2022-12-24T00:04:57;9.80;99.90
63260;DHT22;49390;51.380;0.098;2022-12-24T00:07:35;9.80;99.90
63260;DHT22;49390;51.380;0.098;2022-12-24T00:10:04;9.80;99.90
63260;DHT22;49390;51.380;0.098;2022-12-24T00:12:33;9.80;99.90
63260;DHT22;49390;51.380;0.098;2022-12-24T00:15:02;9.80;99.90
63260;DHT22;49390;51.380;0.098;2022-12-24T00:17:30;9.80;99.90
63260;DHT22;49390;51.380;0.098;2022-12-24T00:19:58;9.80;99.90
63260;DHT22;49390;51.380;0.098;2022-12-24T00:22:28;9.80;99.90
63260;DHT22;49390;51.380;0.098;2022-12-24T00:24:58;9.80;99.90
63260;DHT22;49390;51.380;0.098;2022-12-24T00:27:25;9.80;99.90
63260;DHT22;49390;51.380;0.098;2022-12-24T00:29:53;9.80;99.90
63260;DHT22;49390;51.380;0.098;2022-12-24T00:32:21;9.70;99.90
63260;DHT22;49390;51.380;0.098;2022-12-24T00:34:49;9.70;99.90
63260;DHT22;49390;51.380;0.098;2022-12-24T00:37:17;9.80;99.90
63260;DHT22;49390;51.380;0.098;2022-12-24T00:39:45;9.80;99.90
63260;DHT22;49390;51.380;0.098;2022-12-24T00:42:13;9.70;99.90
63260;DHT22;49390;51.380;0.098;2022-12-24T00:44:41;9.70;99.90
63260;DHT22;49390;51.380;0.098;2022-12-24T00:47:09;9.80;99.90
63260;DHT22;49390;51.380;0.098;2022-12-24T00:49:39;9.70;99.90
63260;DHT22;49390;51.380;0.098;2022-12-24T00:52:06;9.80;99.90
63260;DHT22;49390;51.380;0.098;2022-12-24T00:54:34;9.80;99.90
63260;DHT22;49390;51.380;0.098;2022-12-24T00:57:03;9.70;99.90
63260;DHT22;49390;51.380;0.098;2022-12-24T00:59:31;9.70;99.90
63260;DHT22;49390;51.380;0.098;2022-12-24T01:01:58;9.70;99.90
63260;DHT22;49390;51.380;0.098;2022-12-24T01:04:27;9.70;99.90
63260;DHT22;49390;51.380;0.098;2022-12-24T01:07:13;9.70;99.90
63260;DHT22;49390;51.380;0.098;2022-12-24T01:09:42;9.70;99.90
63260;DHT22;49390;51.380;0.098;2022-12-24T01:12:11;9.70;99.90
63260;DHT22;49390;51.380;0.098;2022-12-24T01:14:39;9.60;99.90
63260;DHT22;49390;51.380;0.098;2022-12-24T01:17:07;9.60;99.90
63260;DHT22;49390;51.380;0.098;2022-12-24T01:19:36;9.60;99.90
63260;DHT22;49390;51.380;0.098;2022-12-24T01:22:04;9.60;99.90
63260;DHT22;49390;51.380;0.098;2022-12-24T01:24:32;9.60;99.90
63260;DHT22;49390;51.380;0.098;2022-12-24T01:27:01;9.60;99.90
63260;DHT22;49390;51.380;0.098;2022-12-24T01:29:31;9.50;99.90
63260;DHT22;49390;51.380;0.098;2022-12-24T01:31:59;9.50;99.90
63260;DHT22;49390;51.380;0.098;2022-12-24T01:34:27;9.60;99.90
63260;DHT22;49390;51.380;0.098;2022-12-24T01:36:55;9.50;99.90
63260;DHT22;49390;51.380;0.098;2022-12-24T01:39:23;9.50;99.90
63260;DHT22;49390;51.380;0.098;2022-12-24T01:41:52;9.50;99.90
63260;DHT22;49390;51.380;0.098;2022-12-24T01:44:42;9.50;99.90
63260;DHT22;49390;51.380;0.098;2022-12-24T01:47:16;9.50;99.90
63260;DHT22;49390;51.380;0.098;2022-12-24T01:49:50;9.40;99.90
63260;DHT22;49390;51.380;0.098;2022-12-24T01:52:22;9.50;99.90
63260;DHT22;49390;51.380;0.098;2022-12-24T01:54:57;9.40;99.90
63260;DHT22;49390;51.380;0.098;2022-12-24T01:57:30;9.40;99.90
63260;DHT22;49390;51.380;0.098;2022-12-24T02:00:06;9.40;99.90
63260;DHT22;49390;51.380;0.098;2022-12-24T02:02:35;9.40;99.90
63260;DHT22;49390;51.380;0.098;2022-12-24T02:05:33;9.40;99.90
63260;DHT22;49390;51.380;0.098;2022-12-24T02:08:04;9.50;99.90
63260;DHT22;49390;51.380;0.098;2022-12-24T02:10:32;9.50;99.90
63260;DHT22;49390;51.380;0.098;2022-12-24T02:13:04;9.50;99.90
63260;DHT22;49390;51.380;0.098;2022-12-24T02:15:42;9.50;99.90
63260;DHT22;49390;51.380;0.098;2022-12-24T02:18:30;9.60;99.90
63260;DHT22;49390;51.380;0.098;2022-12-24T02:27:27;9.60;99.90
63260;DHT22;49390;51.380;0.098;2022-12-24T02:37:55;9.60;99.90
63260;DHT22;49390;51.380;0.098;2022-12-24T02:40:38;9.50;99.90
63260;DHT22;49390;51.380;0.098;2022-12-24T02:43:13;9.50;99.90
63260;DHT22;49390;51.380;0.098;2022-12-24T02:45:47;9.50;99.90
63260;DHT22;49390;51.380;0.098;2022-12-24T02:48:23;9.50;99.90
63260;DHT22;49390;51.380;0.098;2022-12-24T02:50:57;9.40;99.90
63260;DHT22;49390;51.380;0.098;2022-12-24T02:53:26;9.50;99.90
63260;DHT22;49390;51.380;0.098;2022-12-24T03:01:34;9.40;99.90
63260;DHT22;49390;51.380;0.098;2022-12-24T03:07:22;9.40;99.90
63260;DHT22;49390;51.380;0.098;2022-12-24T03:13:03;9.40;99.90
63260;DHT22;49390;51.380;0.098;2022-12-24T03:15:33;9.30;99.90
63260;DHT22;49390;51.380;0.098;2022-12-24T03:18:02;9.30;99.90
63260;DHT22;49390;51.380;0.098;2022-12-24T03:20:43;9.30;99.90
63260;DHT22;49390;51.380;0.098;2022-12-24T03:23:12;9.30;99.90
63260;DHT22;49390;51.380;0.098;2022-12-24T03:25:42;9.30;99.90
63260;DHT22;49390;51.380;0.098;2022-12-24T03:28:13;9.30;99.90
63260;DHT22;49390;51.380;0.098;2022-12-24T03:30:44;9.30;99.90
63260;DHT22;49390;51.380;0.098;2022-12-24T03:33:13;9.30;99.90
63260;DHT22;49390;51.380;0.098;2022-12-24T03:35:41;9.30;99.90
63260;DHT22;49390;51.380;0.098;2022-12-24T03:38:09;9.30;99.90
63260;DHT22;49390;51.380;0.098;2022-12-24T03:40:37;9.30;99.90
63260;DHT22;49390;51.380;0.098;2022-12-24T03:43:06;9.30;99.90
63260;DHT22;49390;51.380;0.098;2022-12-24T03:45:34;9.30;99.90
63260;DHT22;49390;51.380;0.098;2022-12-24T03:48:05;9.30;99.90
63260;DHT22;49390;51.380;0.098;2022-12-24T03:50:34;9.30;99.90
63260;DHT22;49390;51.380;0.098;2022-12-24T03:53:03;9.30;99.90
63260;DHT22;49390;51.380;0.098;2022-12-24T03:55:31;9.30;99.90
63260;DHT22;49390;51.380;0.098;2022-12-24T03:57:59;9.30;99.90
63260;DHT22;49390;51.380;0.098;2022-12-24T04:00:27;9.30;99.90
63260;DHT22;49390;51.380;0.098;2022-12-24T04:02:56;9.20;99.90
63260;DHT22;49390;51.380;0.098;2022-12-24T04:05:24;9.20;99.90
63260;DHT22;49390;51.380;0.098;2022-12-24T04:07:53;9.20;99.90
63260;DHT22;49390;51.380;0.098;2022-12-24T04:10:21;9.20;99.90
63260;DHT22;49390;51.380;0.098;2022-12-24T04:12:50;9.20;99.90
63260;DHT22;49390;51.380;0.098;2022-12-24T04:15:18;9.20;99.90
63260;DHT22;49390;51.380;0.098;2022-12-24T04:17:47;9.20;99.90
63260;DHT22;49390;51.380;0.098;2022-12-24T04:20:16;9.20;99.90
63260;DHT22;49390;51.380;0.098;2022-12-24T04:22:44;9.20;99.90
63260;DHT22;49390;51.380;0.098;2022-12-24T04:25:12;9.20;99.90
63260;DHT22;49390;51.380;0.098;2022-12-24T04:27:40;9.20;99.90
63260;DHT22;49390;51.380;0.098;2022-12-24T04:30:10;9.20;99.90
63260;DHT22;49390;51.380;0.098;2022-12-24T04:32:38;9.20;99.90
63260;DHT22;49390;51.380;0.098;2022-12-24T04:35:06;9.20;99.90
63260;DHT22;49390;51.380;0.098;2022-12-24T04:37:34;9.20;99.90
63260;DHT22;49390;51.380;0.098;2022-12-24T04:40:03;9.20;99.90
63260;DHT22;49390;51.380;0.098;2022-12-24T04:42:32;9.10;99.90
63260;DHT22;49390;51.380;0.098;2022-12-24T04:45:00;9.10;99.90
63260;DHT22;49390;51.380;0.098;2022-12-24T04:47:29;9.20;99.90
63260;DHT22;49390;51.380;0.098;2022-12-24T04:49:57;9.10;99.90
63260;DHT22;49390;51.380;0.098;2022-12-24T04:52:26;9.20;99.90
63260;DHT22;49390;51.380;0.098;2022-12-24T04:54:54;9.20;99.90
63260;DHT22;49390;51.380;0.098;2022-12-24T04:57:22;9.20;99.90
63260;DHT22;49390;51.380;0.098;2022-12-24T04:59:50;9.20;99.90
63260;DHT22;49390;51.380;0.098;2022-12-24T05:02:19;9.20;99.90
63260;DHT22;49390;51.380;0.098;2022-12-24T05:04:48;9.10;99.90
63260;DHT22;49390;51.380;0.098;2022-12-24T05:07:16;9.20;99.90
63260;DHT22;49390;51.380;0.098;2022-12-24T05:09:44;9.20;99.90
63260;DHT22;49390;51.380;0.098;2022-12-24T05:14:40;9.10;99.90
63260;DHT22;49390;51.380;0.098;2022-12-24T05:17:08;9.10;99.90
63260;DHT22;49390;51.380;0.098;2022-12-24T05:19:36;9.10;99.90
63260;DHT22;49390;51.380;0.098;2022-12-24T05:22:04;9.10;99.90
63260;DHT22;49390;51.380;0.098;2022-12-24T05:24:51;9.10;99.90
63260;DHT22;49390;51.380;0.098;2022-12-24T05:27:37;9.10;99.90
63260;DHT22;49390;51.380;0.098;2022-12-24T05:30:06;9.00;99.90
63260;DHT22;49390;51.380;0.098;2022-12-24T05:32:34;9.10;99.90
63260;DHT22;49390;51.380;0.098;2022-12-24T05:35:03;9.00;99.90
63260;DHT22;49390;51.380;0.098;2022-12-24T05:37:32;9.00;99.90
63260;DHT22;49390;51.380;0.098;2022-12-24T05:40:00;9.00;99.90
63260;DHT22;49390;51.380;0.098;2022-12-24T05:42:28;9.00;99.90
63260;DHT22;49390;51.380;0.098;2022-12-24T05:44:56;9.00;99.90
63260;DHT22;49390;51.380;0.098;2022-12-24T05:47:25;9.00;99.90
63260;DHT22;49390;51.380;0.098;2022-12-24T05:49:53;9.00;99.90
63260;DHT22;49390;51.380;0.098;2022-12-24T05:52:22;9.00;99.90
63260;DHT22;49390;51.380;0.098;2022-12-24T05:54:49;9.00;99.90
63260;DHT22;49390;51.380;0.098;2022-12-24T05:57:17;9.00;99.90
63260;DHT22;49390;51.380;0.098;2022-12-24T05:59:45;8.90;99.90
63260;DHT22;49390;51.380;0.098;2022-12-24T06:02:15;8.90;99.90
63260;DHT22;49390;51.380;0.098;2022-12-24T06:04:45;9.00;99.90
63260;DHT22;49390;51.380;0.098;2022-12-24T06:07:14;8.90;99.90
63260;DHT22;49390;51.380;0.098;2022-12-24T06:09:41;8.90;99.90
63260;DHT22;49390;51.380;0.098;2022-12-24T06:12:10;8.90;99.90
63260;DHT22;49390;51.380;0.098;2022-12-24T06:14:38;8.90;99.90
63260;DHT22;49390;51.380;0.098;2022-12-24T06:17:06;8.90;99.90
63260;DHT22;49390;51.380;0.098;2022-12-24T06:19:35;8.90;99.90
63260;DHT22;49390;51.380;0.098;2022-12-24T06:22:03;8.80;99.90
63260;DHT22;49390;51.380;0.098;2022-12-24T06:24:31;8.90;99.90
63260;DHT22;49390;51.380;0.098;2022-12-24T06:26:59;8.90;99.90
63260;DHT22;49390;51.380;0.098;2022-12-24T06:29:27;8.80;99.90
63260;DHT22;49390;51.380;0.098;2022-12-24T06:31:55;8.80;99.90
63260;DHT22;49390;51.380;0.098;2022-12-24T06:34:24;8.80;99.90
63260;DHT22;49390;51.380;0.098;2022-12-24T06:36:52;8.80;99.90
63260;DHT22;49390;51.380;0.098;2022-12-24T06:39:20;8.80;99.90
63260;DHT22;49390;51.380;0.098;2022-12-24T06:41:49;8.80;99.90
63260;DHT22;49390;51.380;0.098;2022-12-24T06:44:19;8.80;99.90
63260;DHT22;49390;51.380;0.098;2022-12-24T06:46:48;8.80;99.90
63260;DHT22;49390;51.380;0.098;2022-12-24T06:49:19;8.70;99.90
63260;DHT22;49390;51.380;0.098;2022-12-24T06:51:47;8.70;99.90
63260;DHT22;49390;51.380;0.098;2022-12-24T06:54:15;8.70;99.90
63260;DHT22;49390;51.380;0.098;2022-12-24T06:56:43;8.70;99.90
63260;DHT22;49390;51.380;0.098;2022-12-24T06:59:11;8.60;99.90
63260;DHT22;49390;51.380;0.098;2022-12-24T07:01:39;8.70;99.90
63260;DHT22;49390;51.380;0.098;2022-12-24T07:04:08;8.60;99.90
63260;DHT22;49390;51.380;0.098;2022-12-24T07:06:44;8.60;99.90
63260;DHT22;49390;51.380;0.098;2022-12-24T07:09:12;8.60;99.90
63260;DHT22;49390;51.380;0.098;2022-12-24T07:11:41;8.50;99.90
63260;DHT22;49390;51.380;0.098;2022-12-24T07:14:09;8.50;99.90
63260;DHT22;49390;51.380;0.098;2022-12-24T07:16:37;8.50;99.90
63260;DHT22;49390;51.380;0.098;2022-12-24T07:19:05;8.50;99.90
63260;DHT22;49390;51.380;0.098;2022-12-24T07:21:34;8.50;99.90
63260;DHT22;49390;51.380;0.098;2022-12-24T07:24:02;8.40;99.90
63260;DHT22;49390;51.380;0.098;2022-12-24T07:26:31;8.40;99.90
63260;DHT22;49390;51.380;0.098;2022-12-24T07:28:59;8.40;99.90
63260;DHT22;49390;51.380;0.098;2022-12-24T07:31:27;8.40;99.90
63260;DHT22;49390;51.380;0.098;2022-12-24T07:33:56;8.40;99.90
63260;DHT22;49390;51.380;0.098;2022-12-24T07:36:24;8.40;99.90
63260;DHT22;49390;51.380;0.098;2022-12-24T07:38:54;8.30;99.90
63260;DHT22;49390;51.380;0.098;2022-12-24T07:41:23;8.30;99.90
63260;DHT22;49390;51.380;0.098;2022-12-24T07:43:52;8.20;99.90
63260;DHT22;49390;51.380;0.098;2022-12-24T07:46:20;8.20;99.90
63260;DHT22;49390;51.380;0.098;2022-12-24T07:48:48;8.20;99.90
63260;DHT22;49390;51.380;0.098;2022-12-24T07:51:16;8.20;99.90
63260;DHT22;49390;51.380;0.098;2022-12-24T07:53:46;8.20;99.90
63260;DHT22;49390;51.380;0.098;2022-12-24T07:56:21;8.20;99.90
63260;DHT22;49390;51.380;0.098;2022-12-24T07:58:51;8.10;99.90
63260;DHT22;49390;51.380;0.098;2022-12-24T08:01:20;8.10;99.90
63260;DHT22;49390;51.380;0.098;2022-12-24T08:03:48;8.10;99.90
63260;DHT22;49390;51.380;0.098;2022-12-24T08:06:18;8.10;99.90
63260;DHT22;49390;51.380;0.098;2022-12-24T08:08:46;8.10;99.90
63260;DHT22;49390;51.380;0.098;2022-12-24T08:11:14;8.10;99.90
63260;DHT22;49390;51.380;0.098;2022-12-24T08:13:43;8.10;99.90
63260;DHT22;49390;51.380;0.098;2022-12-24T08:16:11;8.10;99.90
63260;DHT22;49390;51.380;0.098;2022-12-24T08:18:39;8.10;99.90
63260;DHT22;49390;51.380;0.098;2022-12-24T08:21:08;8.00;99.90
63260;DHT22;49390;51.380;0.098;2022-12-24T08:23:36;8.00;99.90
63260;DHT22;49390;51.380;0.098;2022-12-24T08:26:08;8.00;99.90
63260;DHT22;49390;51.380;0.098;2022-12-24T08:28:36;8.00;99.90
63260;DHT22;49390;51.380;0.098;2022-12-24T08:31:07;7.90;99.90
63260;DHT22;49390;51.380;0.098;2022-12-24T08:33:35;7.90;99.90
63260;DHT22;49390;51.380;0.098;2022-12-24T08:36:03;7.90;99.90
63260;DHT22;49390;51.380;0.098;2022-12-24T08:38:31;7.90;99.90
63260;DHT22;49390;51.380;0.098;2022-12-24T08:41:00;7.90;99.90
63260;DHT22;49390;51.380;0.098;2022-12-24T08:43:29;7.90;99.90
63260;DHT22;49390;51.380;0.098;2022-12-24T08:46:01;7.90;99.90
63260;DHT22;49390;51.380;0.098;2022-12-24T08:48:32;8.00;99.90
63260;DHT22;49390;51.380;0.098;2022-12-24T08:51:08;8.00;99.90
63260;DHT22;49390;51.380;0.098;2022-12-24T08:53:37;8.00;99.90
63260;DHT22;49390;51.380;0.098;2022-12-24T08:56:07;8.00;99.90
63260;DHT22;49390;51.380;0.098;2022-12-24T08:58:35;8.00;99.90
63260;DHT22;49390;51.380;0.098;2022-12-24T09:01:18;8.00;99.90
63260;DHT22;49390;51.380;0.098;2022-12-24T09:03:47;8.00;99.90
63260;DHT22;49390;51.380;0.098;2022-12-24T09:06:15;8.00;99.90
63260;DHT22;49390;51.380;0.098;2022-12-24T09:08:44;8.00;99.90
63260;DHT22;49390;51.380;0.098;2022-12-24T09:11:15;7.90;99.90
63260;DHT22;49390;51.380;0.098;2022-12-24T09:13:43;7.90;99.90
63260;DHT22;49390;51.380;0.098;2022-12-24T09:16:21;7.90;99.90
63260;DHT22;49390;51.380;0.098;2022-12-24T09:24:27;7.90;99.90
63260;DHT22;49390;51.380;0.098;2022-12-24T09:28:02;7.90;99.90
63260;DHT22;49390;51.380;0.098;2022-12-24T09:31:06;8.00;99.90
63260;DHT22;49390;51.380;0.098;2022-12-24T09:33:53;8.00;99.90
63260;DHT22;49390;51.380;0.098;2022-12-24T09:36:46;8.10;99.90
63260;DHT22;49390;51.380;0.098;2022-12-24T09:39:50;8.10;99.90
63260;DHT22;49390;51.380;0.098;2022-12-24T09:43:17;8.10;99.90
63260;DHT22;49390;51.380;0.098;2022-12-24T09:51:46;8.20;99.90
63260;DHT22;49390;51.380;0.098;2022-12-24T09:55:46;8.30;99.90
63260;DHT22;49390;51.380;0.098;2022-12-24T09:58:24;8.30;99.90
63260;DHT22;49390;51.380;0.098;2022-12-24T10:00:55;8.40;99.90
63260;DHT22;49390;51.380;0.098;2022-12-24T10:03:23;8.40;99.90
63260;DHT22;49390;51.380;0.098;2022-12-24T10:13:54;8.80;99.90
63260;DHT22;49390;51.380;0.098;2022-12-24T10:16:35;8.80;99.90
63260;DHT22;49390;51.380;0.098;2022-12-24T10:21:55;9.00;99.90
63260;DHT22;49390;51.380;0.098;2022-12-24T10:27:21;9.00;99.90
63260;DHT22;49390;51.380;0.098;2022-12-24T10:30:03;9.10;99.90
63260;DHT22;49390;51.380;0.098;2022-12-24T10:32:48;9.10;99.90
63260;DHT22;49390;51.380;0.098;2022-12-24T10:35:22;9.10;99.90
63260;DHT22;49390;51.380;0.098;2022-12-24T10:37:52;9.10;99.90
63260;DHT22;49390;51.380;0.098;2022-12-24T10:43:28;9.20;99.90
63260;DHT22;49390;51.380;0.098;2022-12-24T10:46:00;9.30;99.90
63260;DHT22;49390;51.380;0.098;2022-12-24T10:48:37;9.30;99.90
63260;DHT22;49390;51.380;0.098;2022-12-24T10:54:13;9.30;99.90
63260;DHT22;49390;51.380;0.098;2022-12-24T10:56:50;9.40;99.90
63260;DHT22;49390;51.380;0.098;2022-12-24T11:02:00;9.50;99.90
63260;DHT22;49390;51.380;0.098;2022-12-24T11:04:31;9.50;99.90
63260;DHT22;49390;51.380;0.098;2022-12-24T11:07:02;9.50;99.90
63260;DHT22;49390;51.380;0.098;2022-12-24T11:09:38;9.60;99.90
63260;DHT22;49390;51.380;0.098;2022-12-24T11:12:17;9.70;99.90
63260;DHT22;49390;51.380;0.098;2022-12-24T11:14:57;9.70;99.90
63260;DHT22;49390;51.380;0.098;2022-12-24T11:17:51;9.70;99.90
63260;DHT22;49390;51.380;0.098;2022-12-24T11:20:25;9.80;99.90
63260;DHT22;49390;51.380;0.098;2022-12-24T11:22:56;9.80;99.90
63260;DHT22;49390;51.380;0.098;2022-12-24T11:25:31;9.80;99.90
63260;DHT22;49390;51.380;0.098;2022-12-24T11:28:20;9.90;99.90
63260;DHT22;49390;51.380;0.098;2022-12-24T11:35:38;10.00;99.90
63260;DHT22;49390;51.380;0.098;2022-12-24T11:38:16;10.10;99.90
63260;DHT22;49390;51.380;0.098;2022-12-24T11:40:48;10.10;99.90
63260;DHT22;49390;51.380;0.098;2022-12-24T11:43:21;10.20;99.90
63260;DHT22;49390;51.380;0.098;2022-12-24T11:45:54;10.20;99.90
63260;DHT22;49390;51.380;0.098;2022-12-24T11:48:32;10.20;99.90
63260;DHT22;49390;51.380;0.098;2022-12-24T11:51:04;10.30;99.90
63260;DHT22;49390;51.380;0.098;2022-12-24T11:56:31;10.50;99.90
63260;DHT22;49390;51.380;0.098;2022-12-24T11:59:17;10.50;99.90
63260;DHT22;49390;51.380;0.098;2022-12-24T12:04:41;10.70;99.90
63260;DHT22;49390;51.380;0.098;2022-12-24T12:07:23;10.70;99.90
63260;DHT22;49390;51.380;0.098;2022-12-24T12:12:42;10.80;99.90
63260;DHT22;49390;51.380;0.098;2022-12-24T12:17:50;10.90;99.90
63260;DHT22;49390;51.380;0.098;2022-12-24T12:20:37;10.90;99.90
63260;DHT22;49390;51.380;0.098;2022-12-24T12:23:34;10.90;99.90
63260;DHT22;49390;51.380;0.098;2022-12-24T12:26:26;10.90;99.90
63260;DHT22;49390;51.380;0.098;2022-12-24T12:32:10;11.00;99.90
63260;DHT22;49390;51.380;0.098;2022-12-24T12:35:00;11.00;99.90
63260;DHT22;49390;51.380;0.098;2022-12-24T12:41:34;11.00;99.90
63260;DHT22;49390;51.380;0.098;2022-12-24T12:49:42;11.10;99.90
63260;DHT22;49390;51.380;0.098;2022-12-24T12:52:24;11.10;99.90
63260;DHT22;49390;51.380;0.098;2022-12-24T12:58:24;11.10;99.90
63260;DHT22;49390;51.380;0.098;2022-12-24T13:01:15;11.10;99.90
63260;DHT22;49390;51.380;0.098;2022-12-24T13:21:22;11.10;99.90
63260;DHT22;49390;51.380;0.098;2022-12-24T13:24:12;11.10;99.90
63260;DHT22;49390;51.380;0.098;2022-12-24T13:29:41;11.10;99.90
63260;DHT22;49390;51.380;0.098;2022-12-24T13:34:51;11.10;99.90
63260;DHT22;49390;51.380;0.098;2022-12-24T13:37:41;11.00;99.90
63260;DHT22;49390;51.380;0.098;2022-12-24T13:53:16;11.10;99.90
63260;DHT22;49390;51.380;0.098;2022-12-24T13:58:48;11.10;99.90
63260;DHT22;49390;51.380;0.098;2022-12-24T14:01:40;11.20;99.90
63260;DHT22;49390;51.380;0.098;2022-12-24T14:04:23;11.10;99.90
63260;DHT22;49390;51.380;0.098;2022-12-24T14:06:54;11.20;99.90
63260;DHT22;49390;51.380;0.098;2022-12-24T14:09:27;11.20;99.90
63260;DHT22;49390;51.380;0.098;2022-12-24T14:14:28;11.20;99.90
63260;DHT22;49390;51.380;0.098;2022-12-24T14:17:25;11.10;99.90
63260;DHT22;49390;51.380;0.098;2022-12-24T14:19:59;11.20;99.90
63260;DHT22;49390;51.380;0.098;2022-12-24T14:22:42;11.20;99.90
63260;DHT22;49390;51.380;0.098;2022-12-24T14:25:16;11.20;99.90
63260;DHT22;49390;51.380;0.098;2022-12-24T14:28:06;11.20;99.90
63260;DHT22;49390;51.380;0.098;2022-12-24T14:30:41;11.20;99.90
63260;DHT22;49390;51.380;0.098;2022-12-24T14:33:34;11.20;99.90
63260;DHT22;49390;51.380;0.098;2022-12-24T14:36:03;11.20;99.90
63260;DHT22;49390;51.380;0.098;2022-12-24T14:38:34;11.20;99.90
63260;DHT22;49390;51.380;0.098;2022-12-24T14:41:28;11.20;99.90
63260;DHT22;49390;51.380;0.098;2022-12-24T14:44:10;11.20;99.90
63260;DHT22;49390;51.380;0.098;2022-12-24T14:46:53;11.20;99.90
63260;DHT22;49390;51.380;0.098;2022-12-24T14:52:28;11.20;99.90
63260;DHT22;49390;51.380;0.098;2022-12-24T14:55:36;11.20;99.90
63260;DHT22;49390;51.380;0.098;2022-12-24T15:00:47;11.10;99.90
63260;DHT22;49390;51.380;0.098;2022-12-24T15:03:18;11.10;99.90
63260;DHT22;49390;51.380;0.098;2022-12-24T15:06:02;11.10;99.90
63260;DHT22;49390;51.380;0.098;2022-12-24T15:08:43;11.10;99.90
63260;DHT22;49390;51.380;0.098;2022-12-24T15:11:17;11.10;99.90
63260;DHT22;49390;51.380;0.098;2022-12-24T15:13:48;11.10;99.90
63260;DHT22;49390;51.380;0.098;2022-12-24T15:16:27;11.10;99.90
63260;DHT22;49390;51.380;0.098;2022-12-24T15:19:46;11.00;99.90
63260;DHT22;49390;51.380;0.098;2022-12-24T15:21:50;11.00;99.90
63260;DHT22;49390;51.380;0.098;2022-12-24T15:24:27;11.00;99.90
63260;DHT22;49390;51.380;0.098;2022-12-24T15:26:58;11.00;99.90
63260;DHT22;49390;51.380;0.098;2022-12-24T15:29:29;11.00;99.90
63260;DHT22;49390;51.380;0.098;2022-12-24T15:31:58;10.90;99.90
63260;DHT22;49390;51.380;0.098;2022-12-24T15:37:30;10.90;99.90
63260;DHT22;49390;51.380;0.098;2022-12-24T15:40:19;10.80;99.90
63260;DHT22;49390;51.380;0.098;2022-12-24T15:42:51;10.80;99.90
63260;DHT22;49390;51.380;0.098;2022-12-24T15:45:33;10.70;99.90
63260;DHT22;49390;51.380;0.098;2022-12-24T15:48:09;10.70;99.90
63260;DHT22;49390;51.380;0.098;2022-12-24T15:50:45;10.70;99.90
63260;DHT22;49390;51.380;0.098;2022-12-24T15:56:12;10.60;99.90
63260;DHT22;49390;51.380;0.098;2022-12-24T15:58:42;10.60;99.90
63260;DHT22;49390;51.380;0.098;2022-12-24T16:01:25;10.50;99.90
63260;DHT22;49390;51.380;0.098;2022-12-24T16:03:56;10.50;99.90
63260;DHT22;49390;51.380;0.098;2022-12-24T16:06:27;10.50;99.90
63260;DHT22;49390;51.380;0.098;2022-12-24T16:08:55;10.50;99.90
63260;DHT22;49390;51.380;0.098;2022-12-24T16:11:34;10.50;99.90
63260;DHT22;49390;51.380;0.098;2022-12-24T16:19:06;10.40;99.90
63260;DHT22;49390;51.380;0.098;2022-12-24T16:21:40;10.40;99.90
63260;DHT22;49390;51.380;0.098;2022-12-24T16:26:47;10.40;99.90
63260;DHT22;49390;51.380;0.098;2022-12-24T16:29:16;10.40;99.90
63260;DHT22;49390;51.380;0.098;2022-12-24T16:31:52;10.40;99.90
63260;DHT22;49390;51.380;0.098;2022-12-24T16:34:24;10.40;99.90
63260;DHT22;49390;51.380;0.098;2022-12-24T16:39:32;10.40;99.90
63260;DHT22;49390;51.380;0.098;2022-12-24T16:42:02;10.40;99.90
63260;DHT22;49390;51.380;0.098;2022-12-24T16:44:51;10.40;99.90
63260;DHT22;49390;51.380;0.098;2022-12-24T16:47:25;10.40;99.90
63260;DHT22;49390;51.380;0.098;2022-12-24T16:49:53;10.40;99.90
63260;DHT22;49390;51.380;0.098;2022-12-24T16:52:25;10.40;99.90
63260;DHT22;49390;51.380;0.098;2022-12-24T16:54:55;10.40;99.90
63260;DHT22;49390;51.380;0.098;2022-12-24T16:57:24;10.40;99.90
63260;DHT22;49390;51.380;0.098;2022-12-24T16:59:53;10.40;99.90
63260;DHT22;49390;51.380;0.098;2022-12-24T17:02:22;10.40;99.90
63260;DHT22;49390;51.380;0.098;2022-12-24T17:04:52;10.50;99.90
63260;DHT22;49390;51.380;0.098;2022-12-24T17:07:20;10.50;99.90
63260;DHT22;49390;51.380;0.098;2022-12-24T17:09:48;10.50;99.90
63260;DHT22;49390;51.380;0.098;2022-12-24T17:12:17;10.50;99.90
63260;DHT22;49390;51.380;0.098;2022-12-24T17:14:46;10.50;99.90
63260;DHT22;49390;51.380;0.098;2022-12-24T17:17:25;10.60;99.90
63260;DHT22;49390;51.380;0.098;2022-12-24T17:19:55;10.60;99.90
63260;DHT22;49390;51.380;0.098;2022-12-24T17:22:24;10.60;99.90
63260;DHT22;49390;51.380;0.098;2022-12-24T17:24:54;10.60;99.90
63260;DHT22;49390;51.380;0.098;2022-12-24T17:27:23;10.60;99.90
63260;DHT22;49390;51.380;0.098;2022-12-24T17:29:51;10.60;99.90
63260;DHT22;49390;51.380;0.098;2022-12-24T17:32:20;10.60;99.90
63260;DHT22;49390;51.380;0.098;2022-12-24T17:34:48;10.60;99.90
63260;DHT22;49390;51.380;0.098;2022-12-24T17:37:16;10.70;99.90
63260;DHT22;49390;51.380;0.098;2022-12-24T17:39:44;10.80;99.90
63260;DHT22;49390;51.380;0.098;2022-12-24T17:42:12;10.70;99.90
63260;DHT22;49390;51.380;0.098;2022-12-24T17:44:40;10.70;99.90
63260;DHT22;49390;51.380;0.098;2022-12-24T17:47:08;10.80;99.90
63260;DHT22;49390;51.380;0.098;2022-12-24T17:49:36;10.70;99.90
63260;DHT22;49390;51.380;0.098;2022-12-24T17:52:05;10.70;99.90
63260;DHT22;49390;51.380;0.098;2022-12-24T17:54:33;10.70;99.90
63260;DHT22;49390;51.380;0.098;2022-12-24T17:57:02;10.70;99.90
63260;DHT22;49390;51.380;0.098;2022-12-24T17:59:30;10.70;99.90
63260;DHT22;49390;51.380;0.098;2022-12-24T18:01:59;10.70;99.90
63260;DHT22;49390;51.380;0.098;2022-12-24T18:04:27;10.80;99.90
63260;DHT22;49390;51.380;0.098;2022-12-24T18:06:55;10.80;99.90
63260;DHT22;49390;51.380;0.098;2022-12-24T18:09:30;10.80;99.90
63260;DHT22;49390;51.380;0.098;2022-12-24T18:11:58;10.80;99.90
63260;DHT22;49390;51.380;0.098;2022-12-24T18:14:28;10.80;99.90
63260;DHT22;49390;51.380;0.098;2022-12-24T18:16:57;10.80;99.90
63260;DHT22;49390;51.380;0.098;2022-12-24T18:19:25;10.80;99.90
63260;DHT22;49390;51.380;0.098;2022-12-24T18:21:53;10.80;99.90
63260;DHT22;49390;51.380;0.098;2022-12-24T18:24:21;10.90;99.90
63260;DHT22;49390;51.380;0.098;2022-12-24T18:26:50;10.90;99.90
63260;DHT22;49390;51.380;0.098;2022-12-24T18:29:18;10.90;99.90
63260;DHT22;49390;51.380;0.098;2022-12-24T18:31:46;10.90;99.90
63260;DHT22;49390;51.380;0.098;2022-12-24T18:34:14;10.90;99.90
63260;DHT22;49390;51.380;0.098;2022-12-24T18:36:43;10.90;99.90
63260;DHT22;49390;51.380;0.098;2022-12-24T18:39:17;11.00;99.90
63260;DHT22;49390;51.380;0.098;2022-12-24T18:41:46;10.90;99.90
63260;DHT22;49390;51.380;0.098;2022-12-24T18:44:17;11.00;99.90
63260;DHT22;49390;51.380;0.098;2022-12-24T18:46:52;11.00;99.90
63260;DHT22;49390;51.380;0.098;2022-12-24T18:49:20;10.90;99.90
63260;DHT22;49390;51.380;0.098;2022-12-24T18:51:49;10.90;99.90
63260;DHT22;49390;51.380;0.098;2022-12-24T18:54:18;10.90;99.90